Time;durP1;ratioP1;P1;durP2;ratioP2;P2;SDS_P1;SDS_P2;PMS_P1;PMS_P2;Temp;Humidity;BMP_temperature;BMP_pressure;BME280_temperature;BME280_humidity;BME280_pressure;Samples;Min_cycle;Max_cycle;Signal;HPM_P1;HPM_P2
2023/09/01 00:00:04;;;;;;;8.10;7.10;;;;;;;21.73;70.33;100187.07;107352;1260;73494;-82
2023/09/01 00:02:32;;;;;;;9.00;8.10;;;;;;;21.69;70.07;100192.55;107478;1260;72743;-82
2023/09/01 00:05:06;;;;;;;8.80;7.50;;;;;;;21.67;70.15;100194.10;107448;1259;72129;-82
2023/09/01 00:07:34;;;;;;;8.20;7.20;;;;;;;21.66;70.23;100200.21;107515;1260;60420;-78
2023/09/01 00:10:01;;;;;;;8.20;7.10;;;;;;;21.66;70.13;100200.52;107439;1266;61108;-78
2023/09/01 00:12:29;;;;;;;9.90;8.00;;;;;;;21.69;70.30;100203.34;107473;1260;73806;-79
2023/09/01 00:14:57;;;;;;;8.50;7.00;;;;;;;21.72;70.20;100202.75;107494;1261;71806;-77
2023/09/01 00:17:24;;;;;;;10.00;8.00;;;;;;;21.76;70.20;100204.39;107435;1262;71591;-79
2023/09/01 00:19:52;;;;;;;9.60;7.80;;;;;;;21.79;70.12;100208.31;107331;1261;60161;-81
2023/09/01 00:22:19;;;;;;;9.50;8.10;;;;;;;21.82;70.18;100205.91;107516;1260;61215;-80
2023/09/01 00:24:47;;;;;;;10.60;8.60;;;;;;;21.84;70.28;100204.34;107428;1260;74685;-80
2023/09/01 00:27:15;;;;;;;10.30;9.00;;;;;;;21.85;70.18;100200.55;107447;1260;73688;-80
2023/09/01 00:29:43;;;;;;;10.00;8.50;;;;;;;21.86;70.26;100205.50;107402;1261;73027;-80
2023/09/01 00:32:10;;;;;;;9.60;8.60;;;;;;;21.86;70.38;100204.48;107326;1261;61693;-81
2023/09/01 00:34:38;;;;;;;10.20;8.40;;;;;;;21.85;70.44;100204.13;107444;1260;61038;-81
2023/09/01 00:37:06;;;;;;;10.10;9.00;;;;;;;21.83;70.59;100205.23;107377;1260;74873;-80
2023/09/01 00:39:33;;;;;;;10.50;9.30;;;;;;;21.80;70.65;100209.33;107328;1260;74679;-80
2023/09/01 00:42:01;;;;;;;10.00;9.00;;;;;;;21.75;70.92;100209.88;107725;1262;71733;-78
2023/09/01 00:44:28;;;;;;;10.30;9.20;;;;;;;21.72;71.08;100202.66;107721;1260;61336;-77
2023/09/01 00:46:56;;;;;;;10.40;8.50;;;;;;;21.70;71.26;100197.70;107626;1260;61695;-77
2023/09/01 00:49:24;;;;;;;11.50;9.10;;;;;;;21.67;71.59;100194.58;107559;1260;75214;-78
2023/09/01 00:51:52;;;;;;;11.80;9.40;;;;;;;21.65;71.89;100201.06;107449;1260;71628;-79
2023/09/01 00:54:19;;;;;;;9.40;8.40;;;;;;;21.63;71.91;100207.73;107452;1262;71992;-79
2023/09/01 00:56:47;;;;;;;10.80;9.40;;;;;;;21.63;72.24;100210.61;107487;1260;61244;-79
2023/09/01 00:59:14;;;;;;;9.80;8.80;;;;;;;21.63;72.34;100212.85;107558;1259;61369;-80
2023/09/01 01:01:42;;;;;;;9.90;8.60;;;;;;;21.64;72.41;100218.00;107492;1261;74734;-80
2023/09/01 01:04:11;;;;;;;9.70;8.70;;;;;;;21.64;72.59;100224.46;107575;1260;73059;-81
2023/09/01 01:06:52;;;;;;;10.40;8.70;;;;;;;21.65;72.62;100225.58;107452;1260;73300;-80
2023/09/01 01:09:49;;;;;;;8.90;8.00;;;;;;;21.63;72.41;100227.84;107691;1260;61666;-80
2023/09/01 01:12:22;;;;;;;9.60;8.10;;;;;;;21.60;72.33;100227.11;107292;1260;61090;-79
2023/09/01 01:14:53;;;;;;;8.30;7.40;;;;;;;21.58;72.24;100230.15;107386;1267;74825;-79
2023/09/01 01:17:21;;;;;;;8.20;7.30;;;;;;;21.55;71.92;100227.88;107495;1259;71484;-78
2023/09/01 01:20:19;;;;;;;8.40;7.50;;;;;;;21.52;71.81;100221.65;107428;1260;72773;-78
2023/09/01 01:23:06;;;;;;;8.70;6.90;;;;;;;21.50;71.70;100212.98;107493;1260;61781;-80
2023/09/01 01:25:33;;;;;;;8.80;7.60;;;;;;;21.47;71.53;100205.02;107533;1260;61233;-81
2023/09/01 01:28:08;;;;;;;8.60;6.90;;;;;;;21.43;71.28;100199.09;107450;1260;73474;-81
2023/09/01 01:30:36;;;;;;;8.00;6.60;;;;;;;21.41;71.22;100196.60;107313;1260;72206;-81
2023/09/01 01:33:04;;;;;;;7.30;6.50;;;;;;;21.38;71.22;100198.29;107392;1260;72627;-80
2023/09/01 01:35:33;;;;;;;9.90;6.70;;;;;;;21.36;71.05;100201.96;107310;1262;61745;-81
2023/09/01 01:38:23;;;;;;;8.30;7.20;;;;;;;21.34;70.92;100196.89;107611;1260;61149;-80
2023/09/01 01:40:53;;;;;;;8.10;6.70;;;;;;;21.32;70.94;100191.46;107492;1260;74690;-81
2023/09/01 01:43:23;;;;;;;7.30;6.50;;;;;;;21.29;70.65;100193.70;107499;1259;71167;-83
2023/09/01 01:45:51;;;;;;;9.80;7.40;;;;;;;21.26;70.51;100197.83;107443;1260;72538;-80
2023/09/01 01:48:19;;;;;;;8.90;7.40;;;;;;;21.26;70.59;100199.50;107476;1261;61879;-81
2023/09/01 01:50:46;;;;;;;7.90;7.10;;;;;;;21.25;70.53;100201.48;107368;1259;61505;-81
2023/09/01 01:53:14;;;;;;;9.80;7.40;;;;;;;21.24;70.55;100204.41;107430;1259;73456;-83
2023/09/01 01:55:42;;;;;;;7.90;7.10;;;;;;;21.24;70.49;100210.63;107577;1260;72835;-79
2023/09/01 01:58:10;;;;;;;8.00;7.20;;;;;;;21.27;70.27;100212.96;107558;1261;72793;-78
2023/09/01 02:00:38;;;;;;;7.80;7.00;;;;;;;21.28;70.36;100222.48;107489;1263;61142;-79
2023/09/01 02:03:06;;;;;;;8.90;7.50;;;;;;;21.28;70.26;100226.21;107260;1260;60345;-78
2023/09/01 02:05:33;;;;;;;9.80;7.40;;;;;;;21.29;70.08;100231.29;107507;1266;75343;-79
2023/09/01 02:08:05;;;;;;;10.50;8.10;;;;;;;21.31;70.20;100233.05;107450;1260;72983;-81
2023/09/01 02:10:33;;;;;;;8.90;7.20;;;;;;;21.32;70.05;100235.79;107432;1259;72760;-81
2023/09/01 02:13:04;;;;;;;8.70;7.20;;;;;;;21.33;69.92;100237.00;107337;1262;61175;-82
2023/09/01 02:15:31;;;;;;;9.80;7.60;;;;;;;21.34;70.03;100238.88;107455;1260;61058;-82
2023/09/01 02:17:59;;;;;;;8.20;7.20;;;;;;;21.34;69.73;100234.77;107607;1260;73441;-82
2023/09/01 02:20:28;;;;;;;8.50;7.50;;;;;;;21.34;69.76;100235.94;107743;1260;71762;-80
2023/09/01 02:22:56;;;;;;;7.90;6.80;;;;;;;21.32;69.83;100238.60;107468;1262;72676;-80
2023/09/01 02:25:23;;;;;;;9.20;7.30;;;;;;;21.30;69.75;100239.00;107808;1260;61193;-80
2023/09/01 02:27:51;;;;;;;9.80;7.60;;;;;;;21.30;69.89;100240.41;107352;1260;61465;-80
2023/09/01 02:30:19;;;;;;;10.10;7.50;;;;;;;21.28;69.75;100245.23;107505;1262;74969;-80
2023/09/01 02:32:47;;;;;;;10.40;7.40;;;;;;;21.25;70.06;100243.48;107776;1260;71891;-80
2023/09/01 02:35:16;;;;;;;9.10;7.10;;;;;;;21.22;69.93;100246.10;107613;1260;71210;-80
2023/09/01 02:37:43;;;;;;;9.30;7.60;;;;;;;21.20;70.07;100243.39;107540;1260;62685;-80
2023/09/01 02:40:11;;;;;;;9.50;7.20;;;;;;;21.16;70.50;100244.11;107479;1260;61213;-80
2023/09/01 02:42:40;;;;;;;8.10;6.80;;;;;;;21.15;70.62;100244.98;107342;1260;345887;-80
2023/09/01 02:45:11;;;;;;;8.40;7.30;;;;;;;21.14;70.72;100240.94;107451;1260;72467;-80
2023/09/01 02:47:40;;;;;;;8.60;7.50;;;;;;;21.13;70.81;100245.96;107484;1259;71257;-79
2023/09/01 02:50:08;;;;;;;8.70;7.60;;;;;;;21.12;70.95;100242.39;107473;1262;61286;-79
2023/09/01 02:52:36;;;;;;;9.10;7.80;;;;;;;21.10;71.05;100246.92;107427;1259;61156;-80
2023/09/01 02:55:06;;;;;;;10.50;7.20;;;;;;;21.09;71.13;100246.03;107463;1260;74758;-80
2023/09/01 02:57:35;;;;;;;9.10;7.60;;;;;;;21.07;71.30;100245.59;107398;1259;73514;-81
2023/09/01 03:00:14;;;;;;;8.90;7.20;;;;;;;21.05;71.27;100250.80;107398;1262;70954;-80
2023/09/01 03:02:42;;;;;;;10.30;7.90;;;;;;;21.02;71.54;100255.88;107506;1260;62004;-80
2023/09/01 03:05:11;;;;;;;7.90;7.10;;;;;;;20.99;71.69;100257.93;107234;1260;61126;-82
2023/09/01 03:07:40;;;;;;;10.30;7.90;;;;;;;20.95;71.88;100261.60;107471;1260;76723;-82
2023/09/01 03:10:08;;;;;;;8.80;7.50;;;;;;;20.93;71.94;100265.65;107427;1265;71664;-82
2023/09/01 03:12:39;;;;;;;8.90;7.60;;;;;;;20.92;72.08;100265.29;107546;1262;72781;-80
2023/09/01 03:15:07;;;;;;;8.60;7.30;;;;;;;20.93;72.11;100262.77;107642;1260;61652;-81
2023/09/01 03:17:35;;;;;;;9.50;8.10;;;;;;;20.94;72.21;100263.03;107498;1260;61089;-80
2023/09/01 03:20:04;;;;;;;9.50;7.80;;;;;;;20.95;72.22;100259.17;107353;1260;74736;-81
2023/09/01 03:22:32;;;;;;;8.90;8.00;;;;;;;20.95;72.15;100263.36;107547;1260;72077;-82
2023/09/01 03:24:59;;;;;;;8.70;7.40;;;;;;;20.94;72.16;100265.30;107406;1260;72553;-81
2023/09/01 03:27:27;;;;;;;8.80;7.70;;;;;;;20.97;72.32;100274.08;107416;1260;61714;-80
2023/09/01 03:29:55;;;;;;;8.50;7.60;;;;;;;20.97;72.02;100282.09;107410;1260;60333;-79
2023/09/01 03:32:26;;;;;;;8.60;7.70;;;;;;;20.96;72.08;100280.71;107331;1261;73507;-79
2023/09/01 03:34:54;;;;;;;8.70;7.00;;;;;;;20.98;71.91;100282.20;107388;1260;72040;-79
2023/09/01 03:37:22;;;;;;;9.10;8.00;;;;;;;20.99;71.95;100282.54;107614;1267;74981;-77
2023/09/01 03:39:49;;;;;;;9.40;7.60;;;;;;;21.00;71.78;100283.83;107517;1259;61308;-78
2023/09/01 03:42:17;;;;;;;8.30;7.50;;;;;;;21.02;71.85;100288.84;107393;1260;61208;-78
2023/09/01 03:44:45;;;;;;;8.30;7.50;;;;;;;21.03;71.75;100292.23;107407;1260;74781;-78
2023/09/01 03:47:13;;;;;;;10.40;7.70;;;;;;;21.04;71.83;100292.58;107403;1262;71880;-78
2023/09/01 03:49:41;;;;;;;10.00;7.80;;;;;;;21.05;71.80;100294.02;107355;1262;72814;-78
2023/09/01 03:52:08;;;;;;;9.40;7.60;;;;;;;21.05;71.54;100299.11;107792;1260;61079;-79
2023/09/01 03:54:36;;;;;;;10.30;7.90;;;;;;;21.04;71.73;100298.23;107785;1260;61280;-79
2023/09/01 03:57:04;;;;;;;8.70;7.80;;;;;;;21.03;71.67;100293.25;107436;1260;73846;-78
2023/09/01 03:59:31;;;;;;;7.60;6.80;;;;;;;21.04;71.67;100294.52;107537;1260;72675;-79
2023/09/01 04:01:59;;;;;;;9.70;7.60;;;;;;;21.04;71.86;100301.25;107516;1260;73259;-79
2023/09/01 04:04:27;;;;;;;9.90;8.40;;;;;;;21.06;71.86;100301.11;107628;1260;61694;-79
2023/09/01 04:06:55;;;;;;;8.90;7.30;;;;;;;21.09;71.96;100298.88;107548;1260;60141;-79
2023/09/01 04:09:23;;;;;;;9.20;8.00;;;;;;;21.12;71.84;100297.35;108000;1260;75701;-80
2023/09/01 04:11:50;;;;;;;9.90;7.80;;;;;;;21.13;72.05;100292.70;107555;1260;71737;-79
2023/09/01 04:14:18;;;;;;;9.60;8.00;;;;;;;21.12;72.04;100294.78;107423;1260;61365;-79
2023/09/01 04:16:46;;;;;;;9.20;7.80;;;;;;;21.12;72.16;100293.54;107493;1260;61009;-79
2023/09/01 04:19:13;;;;;;;9.30;7.80;;;;;;;21.14;72.14;100300.84;107366;1260;61029;-78
2023/09/01 04:21:41;;;;;;;9.30;8.10;;;;;;;21.16;72.23;100307.03;107387;1260;73266;-78
2023/09/01 04:24:10;;;;;;;8.50;7.30;;;;;;;21.19;72.29;100310.55;107440;1260;72904;-78
2023/09/01 04:26:37;;;;;;;7.90;7.00;;;;;;;21.23;72.25;100311.79;107442;1260;71384;-78
2023/09/01 04:29:06;;;;;;;7.90;7.00;;;;;;;21.23;72.27;100318.94;107613;1260;61085;-80
2023/09/01 04:31:33;;;;;;;9.60;7.30;;;;;;;21.19;71.90;100319.34;107320;1260;61076;-81
2023/09/01 04:34:03;;;;;;;8.70;7.60;;;;;;;21.11;72.13;100319.05;107456;1260;74789;-81
2023/09/01 04:36:32;;;;;;;8.50;7.10;;;;;;;21.08;72.23;100323.27;108201;1260;71614;-82
2023/09/01 04:39:15;;;;;;;9.30;7.60;;;;;;;21.04;72.03;100328.02;107487;1260;71211;-81
2023/09/01 04:41:43;;;;;;;9.10;7.60;;;;;;;21.01;72.38;100329.71;107406;1261;61050;-82
2023/09/01 04:44:13;;;;;;;10.30;8.20;;;;;;;21.06;72.40;100331.30;107467;1260;61105;-80
2023/09/01 04:46:41;;;;;;;7.90;7.10;;;;;;;21.12;72.26;100333.20;107504;1260;74993;-80
2023/09/01 04:49:09;;;;;;;8.40;7.50;;;;;;;21.21;72.41;100331.80;107637;1260;72956;-79
2023/09/01 04:51:38;;;;;;;8.80;7.70;;;;;;;21.28;71.97;100330.27;107450;1262;70860;-81
2023/09/01 04:54:07;;;;;;;9.50;7.40;;;;;;;21.28;71.69;100330.84;107412;1260;60523;-82
2023/09/01 04:56:34;;;;;;;8.30;7.40;;;;;;;21.33;71.54;100331.99;107409;1262;61120;-82
2023/09/01 04:59:02;;;;;;;11.00;7.70;;;;;;;21.38;71.35;100333.21;107658;1259;74760;-81
2023/09/01 05:01:30;;;;;;;9.50;8.10;;;;;;;21.41;71.16;100333.23;107335;1260;71172;-83
2023/09/01 05:03:59;;;;;;;8.70;7.80;;;;;;;21.45;70.99;100338.80;107569;1264;71663;-82
2023/09/01 05:06:27;;;;;;;11.10;8.40;;;;;;;21.50;71.09;100337.20;107552;1262;61146;-82
2023/09/01 05:08:55;;;;;;;9.50;8.50;;;;;;;21.58;70.60;100335.68;107342;1259;61100;-81
2023/09/01 05:11:22;;;;;;;9.90;8.30;;;;;;;21.65;70.43;100335.45;107509;1260;74802;-81
2023/09/01 05:13:50;;;;;;;9.60;8.50;;;;;;;21.72;70.24;100330.89;107417;1260;72911;-82
2023/09/01 05:16:17;;;;;;;10.50;8.60;;;;;;;21.79;69.82;100327.88;107451;1262;71419;-82
2023/09/01 05:18:46;;;;;;;9.60;8.60;;;;;;;21.84;69.47;100326.47;107455;1264;61385;-82
2023/09/01 05:21:15;;;;;;;9.00;8.10;;;;;;;21.87;69.47;100329.35;107422;1260;61170;-83
2023/09/01 05:23:43;;;;;;;9.80;8.20;;;;;;;21.88;69.22;100329.63;107830;1260;74807;-83
2023/09/01 05:26:11;;;;;;;9.80;8.10;;;;;;;21.91;69.28;100327.21;107790;1260;72906;-82
2023/09/01 05:28:39;;;;;;;9.80;8.20;;;;;;;21.93;69.05;100330.33;107340;1261;73165;-81
2023/09/01 05:31:07;;;;;;;9.50;8.60;;;;;;;21.99;69.00;100328.17;107321;1261;64592;-82
2023/09/01 05:33:41;;;;;;;10.00;8.80;;;;;;;22.04;68.92;100325.01;107473;1260;61258;-82
2023/09/01 05:36:08;;;;;;;9.10;8.10;;;;;;;22.06;68.93;100326.55;107303;1260;74240;-82
2023/09/01 05:38:37;;;;;;;9.30;8.40;;;;;;;22.09;68.88;100332.40;107374;1259;71480;-81
2023/09/01 05:41:05;;;;;;;10.20;9.00;;;;;;;22.15;69.00;100337.64;107380;1262;72623;-80
2023/09/01 05:43:33;;;;;;;11.30;9.20;;;;;;;22.21;69.03;100337.61;107374;1262;61156;-79
2023/09/01 05:46:01;;;;;;;10.50;9.00;;;;;;;22.28;69.13;100332.17;107356;1260;62565;-78
2023/09/01 05:48:28;;;;;;;11.30;9.20;;;;;;;22.38;69.12;100328.10;107436;1260;76762;-78
2023/09/01 05:50:56;;;;;;;14.60;12.10;;;;;;;22.50;68.78;100325.21;107359;1260;72754;-78
2023/09/01 05:53:25;;;;;;;14.20;12.70;;;;;;;22.56;68.12;100322.74;107479;1261;70536;-78
2023/09/01 05:55:53;;;;;;;15.10;13.50;;;;;;;22.57;67.54;100319.90;107408;1264;61898;-82
2023/09/01 05:58:21;;;;;;;16.40;14.20;;;;;;;22.56;67.11;100321.98;107454;1260;61171;-79
2023/09/01 06:00:49;;;;;;;17.00;15.40;;;;;;;22.54;66.83;100318.88;107594;1260;74037;-79
2023/09/01 06:03:17;;;;;;;18.10;16.20;;;;;;;22.53;66.87;100319.71;107254;1259;72707;-77
2023/09/01 06:05:45;;;;;;;16.00;14.40;;;;;;;22.53;66.82;100319.70;107495;1261;73240;-76
2023/09/01 06:08:12;;;;;;;18.00;16.20;;;;;;;22.54;66.95;100319.35;107496;1260;61776;-76
2023/09/01 06:10:40;;;;;;;16.10;14.60;;;;;;;22.58;66.95;100323.61;107439;1261;60176;-77
2023/09/01 06:13:08;;;;;;;14.80;13.30;;;;;;;22.66;66.50;100326.11;107279;1262;73469;-76
2023/09/01 06:15:35;;;;;;;14.80;13.00;;;;;;;22.78;66.49;100325.17;107380;1260;72786;-78
2023/09/01 06:18:03;;;;;;;15.50;13.90;;;;;;;22.89;66.25;100323.80;107444;1260;73665;-78
2023/09/01 06:20:31;;;;;;;12.70;11.40;;;;;;;23.02;65.82;100326.91;107441;1260;61182;-79
2023/09/01 06:22:59;;;;;;;13.40;12.00;;;;;;;23.11;65.18;100329.52;107483;1260;61243;-78
2023/09/01 06:25:26;;;;;;;13.80;12.40;;;;;;;23.20;64.89;100328.04;107430;1261;74278;-79
2023/09/01 06:27:54;;;;;;;12.30;11.00;;;;;;;23.29;64.53;100328.67;107566;1261;71978;-79
2023/09/01 06:30:23;;;;;;;12.50;11.30;;;;;;;23.37;63.84;100332.45;107265;1260;73110;-78
2023/09/01 06:32:55;;;;;;;13.30;11.90;;;;;;;23.47;63.54;100335.61;107387;1261;61677;-78
2023/09/01 06:35:23;;;;;;;13.40;12.00;;;;;;;23.53;62.69;100334.82;107333;1260;60009;-78
2023/09/01 06:37:51;;;;;;;12.10;10.90;;;;;;;23.57;62.30;100334.88;107106;1261;74749;-78
2023/09/01 06:40:18;;;;;;;11.90;10.70;;;;;;;23.62;61.99;100329.92;107301;1261;75035;-78
2023/09/01 06:42:46;;;;;;;11.50;10.40;;;;;;;23.71;61.68;100328.39;107309;1260;72967;-78
2023/09/01 06:45:14;;;;;;;11.20;10.00;;;;;;;23.81;61.17;100326.46;107339;1260;61711;-77
2023/09/01 06:47:42;;;;;;;14.00;10.30;;;;;;;23.91;60.60;100324.21;107204;1259;62470;-78
2023/09/01 06:50:10;;;;;;;10.40;9.40;;;;;;;23.98;59.99;100328.35;107383;1262;74714;-75
2023/09/01 06:52:38;;;;;;;10.00;8.10;;;;;;;24.03;59.53;100323.24;107534;1261;72919;-75
2023/09/01 06:55:05;;;;;;;10.80;8.50;;;;;;;24.06;58.95;100322.62;107537;1261;73144;-76
2023/09/01 06:57:36;;;;;;;8.70;7.40;;;;;;;24.08;58.70;100314.71;108561;1260;64069;-76
2023/09/01 07:00:05;;;;;;;9.60;8.60;;;;;;;24.14;58.64;100318.50;107482;1261;61444;-76
2023/09/01 07:02:33;;;;;;;10.80;8.90;;;;;;;24.19;58.29;100320.43;107522;1260;74784;-76
2023/09/01 07:05:00;;;;;;;10.50;9.00;;;;;;;24.23;58.28;100316.77;107365;1261;71617;-78
2023/09/01 07:07:28;;;;;;;9.70;8.70;;;;;;;24.26;58.57;100311.23;107428;1260;71953;-77
2023/09/01 07:09:55;;;;;;;10.80;9.00;;;;;;;24.34;58.52;100311.48;107383;1264;61843;-81
2023/09/01 07:12:23;;;;;;;9.80;8.90;;;;;;;24.36;58.15;100317.70;107463;1259;61196;-79
2023/09/01 07:14:51;;;;;;;10.80;9.00;;;;;;;24.38;57.99;100314.30;108110;1260;73407;-80
2023/09/01 07:17:21;;;;;;;9.50;8.60;;;;;;;24.39;57.95;100317.77;107527;1261;74942;-80
2023/09/01 07:19:49;;;;;;;11.80;8.40;;;;;;;24.40;58.09;100319.19;107295;1264;70726;-81
2023/09/01 07:22:17;;;;;;;9.60;8.60;;;;;;;24.43;58.14;100320.08;107354;1259;61165;-79
2023/09/01 07:24:44;;;;;;;10.80;9.70;;;;;;;24.50;58.14;100320.45;107366;1260;61001;-80
2023/09/01 07:27:13;;;;;;;11.60;9.90;;;;;;;24.58;57.80;100319.77;107403;1259;73542;-80
2023/09/01 07:29:41;;;;;;;10.20;9.20;;;;;;;24.64;57.60;100323.16;107337;1260;72610;-80
2023/09/01 07:32:08;;;;;;;9.00;8.10;;;;;;;24.68;57.34;100323.66;107426;1262;72298;-78
2023/09/01 07:34:37;;;;;;;9.10;8.20;;;;;;;24.75;57.44;100325.98;107413;1260;61093;-80
2023/09/01 07:37:05;;;;;;;9.90;9.00;;;;;;;24.79;56.99;100329.73;107485;1261;61100;-81
2023/09/01 07:39:35;;;;;;;9.70;8.70;;;;;;;24.80;56.70;100323.77;107293;1260;74755;-77
2023/09/01 07:42:04;;;;;;;9.80;8.80;;;;;;;24.76;56.45;100326.54;107297;1260;72889;-78
2023/09/01 07:44:31;;;;;;;9.10;8.10;;;;;;;24.66;56.39;100320.02;107397;1261;71521;-79
2023/09/01 07:46:59;;;;;;;9.50;7.30;;;;;;;24.59;56.99;100323.60;107361;1262;61154;-79
2023/09/01 07:49:26;;;;;;;8.20;7.40;;;;;;;24.55;56.98;100332.83;107387;1260;59425;-79
2023/09/01 07:51:54;;;;;;;8.20;7.30;;;;;;;24.54;56.78;100329.36;107431;1262;74800;-79
2023/09/01 07:54:22;;;;;;;7.60;6.80;;;;;;;24.59;56.88;100330.71;107442;1262;75084;-80
2023/09/01 07:56:49;;;;;;;8.10;6.70;;;;;;;24.71;56.78;100333.45;107247;1259;72838;-79
2023/09/01 07:59:17;;;;;;;7.40;6.00;;;;;;;24.84;56.50;100332.63;107379;1261;61290;-79
2023/09/01 08:01:49;;;;;;;6.60;5.90;;;;;;;24.95;55.35;100329.35;107419;1260;61474;-77
2023/09/01 08:04:16;;;;;;;7.20;6.20;;;;;;;25.03;54.78;100332.48;107445;1262;74836;-79
2023/09/01 08:06:46;;;;;;;6.80;6.00;;;;;;;25.09;54.70;100329.32;107331;1266;73384;-79
2023/09/01 08:09:15;;;;;;;7.50;5.60;;;;;;;25.11;54.27;100332.16;107525;1261;72734;-78
2023/09/01 08:11:44;;;;;;;7.50;5.70;;;;;;;25.14;54.18;100332.08;107504;1262;61118;-77
2023/09/01 08:14:12;;;;;;;7.60;6.10;;;;;;;25.15;54.04;100331.49;107331;1261;61104;-80
2023/09/01 08:16:39;;;;;;;6.90;5.80;;;;;;;25.17;53.62;100331.77;107632;1260;73939;-79
2023/09/01 08:19:07;;;;;;;7.40;5.10;;;;;;;25.20;53.48;100329.63;107396;1262;73657;-79
2023/09/01 08:21:35;;;;;;;7.70;5.80;;;;;;;25.24;52.26;100331.13;107400;1262;72812;-79
2023/09/01 08:24:03;;;;;;;6.70;5.40;;;;;;;25.25;51.87;100335.44;107333;1261;61255;-81
2023/09/01 08:26:32;;;;;;;8.20;5.50;;;;;;;25.25;52.03;100337.86;107291;1262;61247;-85
2023/09/01 08:29:00;;;;;;;5.70;4.80;;;;;;;25.24;51.75;100337.92;107322;1259;76894;-80
2023/09/01 08:31:27;;;;;;;6.40;5.40;;;;;;;25.23;51.67;100345.02;107318;1259;70988;-83
2023/09/01 08:33:55;;;;;;;6.80;5.80;;;;;;;25.22;51.65;100354.36;107261;1259;71645;-84
2023/09/01 08:36:23;;;;;;;6.80;5.50;;;;;;;25.21;51.57;100346.20;107492;1265;61170;-84
2023/09/01 08:38:50;;;;;;;6.90;5.80;;;;;;;25.19;51.41;100348.91;107292;1261;61709;-83
2023/09/01 08:41:18;;;;;;;7.00;5.50;;;;;;;25.20;51.53;100351.56;107383;1260;73666;-79
2023/09/01 08:43:46;;;;;;;8.10;5.80;;;;;;;25.23;51.57;100347.11;107171;1262;72902;-80
2023/09/01 08:46:15;;;;;;;7.00;5.20;;;;;;;25.33;51.53;100347.23;107180;1262;72123;-81
2023/09/01 08:48:44;;;;;;;6.30;5.40;;;;;;;25.47;50.84;100351.79;107380;1261;61216;-82
2023/09/01 08:51:14;;;;;;;7.70;6.60;;;;;;;25.57;50.51;100350.70;107452;1259;61141;-80
2023/09/01 08:53:44;;;;;;;7.20;6.00;;;;;;;25.66;50.45;100357.36;107383;1261;74357;-84
2023/09/01 08:56:12;;;;;;;7.30;6.50;;;;;;;25.75;50.45;100355.95;107388;1259;73338;-81
2023/09/01 08:58:41;;;;;;;9.20;7.30;;;;;;;25.81;50.31;100354.73;107440;1262;71498;-83
2023/09/01 09:01:08;;;;;;;7.60;6.80;;;;;;;25.86;50.27;100357.18;107578;1265;62449;-80
2023/09/01 09:03:36;;;;;;;7.40;6.60;;;;;;;25.91;50.01;100360.16;107525;1261;61232;-82
2023/09/01 09:06:04;;;;;;;7.50;6.70;;;;;;;25.96;49.89;100358.04;107463;1259;73480;-81
2023/09/01 09:08:34;;;;;;;7.40;6.40;;;;;;;26.05;49.72;100359.59;107340;1262;72930;-81
2023/09/01 09:11:02;;;;;;;8.60;6.70;;;;;;;26.12;49.35;100358.63;107380;1262;72744;-80
2023/09/01 09:13:33;;;;;;;7.70;6.90;;;;;;;26.23;49.15;100358.70;107349;1262;61105;-80
2023/09/01 09:16:09;;;;;;;9.70;7.60;;;;;;;26.38;49.22;100359.02;107482;1260;59647;-80
2023/09/01 09:18:39;;;;;;;7.80;6.80;;;;;;;26.56;48.96;100349.68;107292;1262;74652;-81
2023/09/01 09:21:23;;;;;;;7.30;6.10;;;;;;;26.75;48.38;100351.41;107480;1262;72996;-80
2023/09/01 09:23:51;;;;;;;6.80;5.80;;;;;;;26.87;46.64;100353.99;107469;1261;72834;-82
2023/09/01 09:26:32;;;;;;;9.20;6.60;;;;;;;26.85;46.82;100351.38;107530;1262;61128;-81
2023/09/01 09:29:11;;;;;;;8.00;6.50;;;;;;;26.81;47.05;100350.17;107556;1261;61157;-80
2023/09/01 09:31:40;;;;;;;9.50;6.90;;;;;;;26.74;47.17;100350.16;107423;1262;73396;-82
2023/09/01 09:34:18;;;;;;;9.30;6.90;;;;;;;26.68;47.52;100354.98;107360;1265;75467;-80
2023/09/01 09:36:47;;;;;;;10.10;6.80;;;;;;;26.63;47.34;100361.04;107367;1261;73150;-79
2023/09/01 09:39:25;;;;;;;7.40;6.40;;;;;;;26.59;47.56;100369.04;107279;1262;61098;-78
2023/09/01 09:41:53;;;;;;;7.40;6.60;;;;;;;26.59;47.67;100374.21;107332;1261;60483;-80
2023/09/01 09:44:23;;;;;;;6.70;5.70;;;;;;;26.74;47.80;100374.58;107510;1262;72830;-78
2023/09/01 09:46:50;;;;;;;7.00;6.30;;;;;;;26.99;47.11;100375.36;107473;1262;73195;-76
2023/09/01 09:49:18;;;;;;;8.60;6.30;;;;;;;27.21;46.56;100371.82;107304;1262;72828;-78
2023/09/01 09:51:48;;;;;;;8.60;6.60;;;;;;;27.38;46.87;100371.77;107360;1262;61025;-79
2023/09/01 09:54:21;;;;;;;8.10;6.90;;;;;;;27.56;46.00;100372.27;107392;1262;61940;-79
2023/09/01 09:56:50;;;;;;;7.30;6.20;;;;;;;27.70;45.01;100373.90;107893;1259;75415;-78
2023/09/01 09:59:27;;;;;;;7.30;6.10;;;;;;;27.79;44.22;100371.80;107836;1262;62906;-77
2023/09/01 10:01:55;;;;;;;9.10;6.40;;;;;;;27.89;44.23;100372.20;107465;1262;72952;-80
2023/09/01 10:04:23;;;;;;;6.00;5.40;;;;;;;27.93;44.37;100370.92;107260;1261;61080;-76
2023/09/01 10:06:51;;;;;;;8.10;6.30;;;;;;;27.93;43.26;100372.72;107188;1260;61155;-79
2023/09/01 10:09:18;;;;;;;7.80;6.50;;;;;;;27.87;43.66;100371.56;107336;1262;74850;-78
2023/09/01 10:11:46;;;;;;;6.90;6.20;;;;;;;27.97;43.78;100372.68;107236;1261;73687;-78
2023/09/01 10:14:17;;;;;;;7.40;6.40;;;;;;;28.19;44.01;100372.38;107254;1263;71393;-78
2023/09/01 10:16:44;;;;;;;6.80;5.70;;;;;;;28.40;43.17;100370.27;107450;1260;61189;-80
2023/09/01 10:19:12;;;;;;;6.80;5.80;;;;;;;28.52;42.99;100370.44;107411;1259;61170;-77
2023/09/01 10:21:41;;;;;;;7.00;6.30;;;;;;;28.57;42.67;100373.67;107375;1260;74732;-79
2023/09/01 10:24:13;;;;;;;6.50;5.60;;;;;;;28.49;42.09;100373.79;107418;1261;63885;-77
2023/09/01 10:26:41;;;;;;;8.40;5.70;;;;;;;28.36;41.96;100375.95;107369;1261;71861;-78
2023/09/01 10:29:10;;;;;;;6.70;5.80;;;;;;;28.34;42.36;100377.89;107294;1259;60090;-78
2023/09/01 10:31:37;;;;;;;8.10;6.10;;;;;;;28.43;41.88;100375.94;107446;1260;59201;-77
2023/09/01 10:34:07;;;;;;;7.10;6.40;;;;;;;28.48;41.76;100373.46;107462;1261;64625;-78
2023/09/01 10:36:36;;;;;;;6.50;5.80;;;;;;;28.44;41.10;100373.67;107383;1260;62568;-76
2023/09/01 10:39:16;;;;;;;6.70;6.00;;;;;;;28.41;41.37;100366.20;107319;1260;62575;-77
2023/09/01 10:41:50;;;;;;;6.40;5.30;;;;;;;28.51;41.17;100369.01;107361;1262;61128;-78
2023/09/01 10:44:18;;;;;;;6.60;5.30;;;;;;;28.66;40.25;100369.73;107492;1261;60002;-77
2023/09/01 10:46:45;;;;;;;5.60;5.00;;;;;;;28.77;39.29;100368.36;107487;1262;73668;-76
2023/09/01 10:49:14;;;;;;;5.60;4.80;;;;;;;28.73;38.94;100368.81;107481;1260;63991;-77
2023/09/01 10:51:41;;;;;;;5.60;5.00;;;;;;;28.71;39.52;100371.40;107365;1262;62837;-77
2023/09/01 10:54:15;;;;;;;7.60;5.40;;;;;;;28.73;39.25;100369.84;107495;1260;61246;-77
2023/09/01 10:56:59;;;;;;;5.90;5.30;;;;;;;28.61;39.45;100368.44;107564;1261;60360;-79
2023/09/01 10:59:29;;;;;;;8.20;6.30;;;;;;;28.46;39.94;100365.61;107477;1259;65816;-78
2023/09/01 11:01:56;;;;;;;7.00;5.90;;;;;;;28.35;39.92;100369.75;107535;1262;62872;-77
2023/09/01 11:04:27;;;;;;;7.80;6.80;;;;;;;28.27;40.31;100378.88;107416;1262;73937;-77
2023/09/01 11:06:58;;;;;;;6.90;6.20;;;;;;;28.13;40.26;100380.57;107559;1262;61770;-78
2023/09/01 11:09:32;;;;;;;8.60;6.90;;;;;;;27.95;40.26;100377.05;107434;1261;61109;-77
2023/09/01 11:12:00;;;;;;;7.30;6.30;;;;;;;27.81;40.70;100379.44;107413;1261;67945;-77
2023/09/01 11:14:28;;;;;;;8.10;7.30;;;;;;;27.79;41.25;100375.81;107543;1260;64044;-78
2023/09/01 11:16:56;;;;;;;8.20;7.40;;;;;;;27.82;41.50;100376.70;107524;1260;63821;-78
2023/09/01 11:19:23;;;;;;;8.60;7.20;;;;;;;27.81;41.82;100378.02;107417;1262;61230;-79
2023/09/01 11:21:51;;;;;;;8.60;7.00;;;;;;;27.76;41.88;100374.91;107455;1260;61247;-78